KTSP/TSP METAR and TAF weather

Enter ICAO airport designator
Station Type Date Time Source
KTSP METAR 2019/04/25 09:55 UTC NOAA

KTSP 250955Z AUTO 30003KT 10SM CLR 13/05 A3008 RMK AO2


Station Type Date Time Source
KTSP Decoded METAR 2019/04/25 09:55 UTC NOAA

Station name not available
Apr 25, 2019 - 05:55 AM EDT / 2019.04.25 0955 UTC
Wind: from the WNW (300 degrees) at 3 MPH (3 KT):0
Visibility: 10 mile(s):0
Sky conditions: clear
Temperature: 55 F (13 C)
Dew Point: 41 F (5 C)
Relative Humidity: 58%
Pressure (altimeter): 30.08 in. Hg (1018 hPa)
ob: KTSP 250955Z AUTO 30003KT 10SM CLR 13/05 A3008 RMK AO2
cycle: 10

Station Type Date Time Source
KTSP TAF UTC NOAA

Error!

Example: see airport list